Terminal Aerodrome Forecast
Issued by NWS Charleston, WV

Current Version | Previous Version | Graphics & Text | Print | Product List | Glossary On
Versions: 1 2 3 4 5 6 7 8 9 10 11 12 13 14 15 16 17 18 19 20 21 22
000
FTUS41 KRLX 271603 AAA
TAFCRW
TAF AMD
KCRW 271603Z 2716/2812 VRB03KT P6SM SCT025 BKN040
     FM271800 04006KT P6SM SCT045
     FM272300 00000KT P6SM SKC
     FM280800 00000KT 4SM BR SCT001
     FM280900 00000KT 1/4SM FG VV001=

USA.gov is the U.S. government's official web portal to all federal, state and local government web resources and services.